TTPP/POS METAR and TAF weather

Enter ICAO airport designator
Station Type Date Time Source
TTPP METAR 2021/08/04 17:00 UTC NOAA

TTPP 041700Z 11005KT 9999 VCSH SCT018 32/21 Q1015 NOSIG RMK JP...NW TO N TO N'E


Station Type Date Time Source
TTPP Decoded METAR 2021/08/04 17:00 UTC NOAA

Piarco International Airport, Trinidad, Trinidad and Tobago (TTPP) 10-37N 061-21W 15M
Aug 04, 2021 - 01:00 PM EDT / 2021.08.04 1700 UTC
Wind: from the ESE (110 degrees) at 6 MPH (5 KT):0
Visibility: greater than 7 mile(s):0
Sky conditions: partly cloudy
Weather: showers in the vicinity
Temperature: 89 F (32 C)
Dew Point: 69 F (21 C)
Relative Humidity: 52%
Pressure (altimeter): 29.97 in. Hg (1015 hPa)
ob: TTPP 041700Z 11005KT 9999 VCSH SCT018 32/21 Q1015 NOSIG RMK JP...NW TO N TO N'E
cycle: 17

Station Type Date Time Source
TTPP TAF 2021/08/04 12:47 UTC NOAA

TAF TTPP 041000Z 0412/0512 10008KT 9999 SCT022
TEMPO 0415/0421 5000 SHRA BKN016 PROB30
TEMPO 0416/0420 VRB05KT 1000 TSRA FEW010CB BKN014
BECMG 0423/0501 00000KT FEW016 PROB40
TEMPO 0503/0509 7000 SHRA BKN014

Example: see airport list